sensor_id;sensor_type;location;lat;lon;timestamp;pressure;altitude;pressure_sealevel;temperature
70969;BMP280;58630;43.022;25.100;2023-07-29T00:02:08;;;;27.40
70969;BMP280;58630;43.022;25.100;2023-07-29T00:04:34;;;;27.50
70969;BMP280;58630;43.022;25.100;2023-07-29T00:06:59;;;;27.40
70969;BMP280;58630;43.022;25.100;2023-07-29T00:09:25;;;;27.30
70969;BMP280;58630;43.022;25.100;2023-07-29T00:11:50;;;;27.30
70969;BMP280;58630;43.022;25.100;2023-07-29T00:14:16;;;;27.30
70969;BMP280;58630;43.022;25.100;2023-07-29T00:16:41;;;;27.10
70969;BMP280;58630;43.022;25.100;2023-07-29T00:19:08;;;;27.10
70969;BMP280;58630;43.022;25.100;2023-07-29T00:21:33;;;;27.20
70969;BMP280;58630;43.022;25.100;2023-07-29T00:23:59;;;;27.20
70969;BMP280;58630;43.022;25.100;2023-07-29T00:26:26;;;;27.20
70969;BMP280;58630;43.022;25.100;2023-07-29T00:28:56;;;;27.20
70969;BMP280;58630;43.022;25.100;2023-07-29T00:31:22;;;;27.20
70969;BMP280;58630;43.022;25.100;2023-07-29T00:33:48;;;;27.20
70969;BMP280;58630;43.022;25.100;2023-07-29T00:36:13;;;;27.10
70969;BMP280;58630;43.022;25.100;2023-07-29T00:38:39;;;;27.10
70969;BMP280;58630;43.022;25.100;2023-07-29T00:41:04;;;;26.90
70969;BMP280;58630;43.022;25.100;2023-07-29T00:43:30;;;;26.70
70969;BMP280;58630;43.022;25.100;2023-07-29T00:45:56;;;;26.70
70969;BMP280;58630;43.022;25.100;2023-07-29T00:48:23;;;;26.70
70969;BMP280;58630;43.022;25.100;2023-07-29T00:50:49;;;;26.70
70969;BMP280;58630;43.022;25.100;2023-07-29T00:53:14;;;;26.60
70969;BMP280;58630;43.022;25.100;2023-07-29T00:55:40;;;;26.50
70969;BMP280;58630;43.022;25.100;2023-07-29T00:58:06;;;;26.40
70969;BMP280;58630;43.022;25.100;2023-07-29T01:00:32;;;;26.30
70969;BMP280;58630;43.022;25.100;2023-07-29T01:02:58;;;;26.10
70969;BMP280;58630;43.022;25.100;2023-07-29T01:05:23;;;;26.00
70969;BMP280;58630;43.022;25.100;2023-07-29T01:07:58;;;;25.90
70969;BMP280;58630;43.022;25.100;2023-07-29T01:10:39;;;;25.90
70969;BMP280;58630;43.022;25.100;2023-07-29T01:15:36;;;;25.70
70969;BMP280;58630;43.022;25.100;2023-07-29T01:18:08;;;;25.60
70969;BMP280;58630;43.022;25.100;2023-07-29T01:20:37;;;;25.50
70969;BMP280;58630;43.022;25.100;2023-07-29T01:23:04;;;;25.40
70969;BMP280;58630;43.022;25.100;2023-07-29T01:25:29;;;;25.30
70969;BMP280;58630;43.022;25.100;2023-07-29T01:27:55;;;;25.30
70969;BMP280;58630;43.022;25.100;2023-07-29T01:30:21;;;;25.30
70969;BMP280;58630;43.022;25.100;2023-07-29T01:32:53;;;;25.20
70969;BMP280;58630;43.022;25.100;2023-07-29T01:37:52;;;;24.90
70969;BMP280;58630;43.022;25.100;2023-07-29T01:40:20;;;;24.90
70969;BMP280;58630;43.022;25.100;2023-07-29T01:42:47;;;;25.00
70969;BMP280;58630;43.022;25.100;2023-07-29T01:45:13;;;;25.00
70969;BMP280;58630;43.022;25.100;2023-07-29T01:47:39;;;;25.20
70969;BMP280;58630;43.022;25.100;2023-07-29T01:50:07;;;;25.30
70969;BMP280;58630;43.022;25.100;2023-07-29T01:52:32;;;;25.20
70969;BMP280;58630;43.022;25.100;2023-07-29T01:54:58;;;;25.10
70969;BMP280;58630;43.022;25.100;2023-07-29T01:57:24;;;;25.00
70969;BMP280;58630;43.022;25.100;2023-07-29T01:59:49;;;;25.10
70969;BMP280;58630;43.022;25.100;2023-07-29T02:02:15;;;;25.20
70969;BMP280;58630;43.022;25.100;2023-07-29T02:04:40;;;;25.20
70969;BMP280;58630;43.022;25.100;2023-07-29T02:07:06;;;;25.40
70969;BMP280;58630;43.022;25.100;2023-07-29T02:09:31;;;;25.40
70969;BMP280;58630;43.022;25.100;2023-07-29T02:11:57;;;;25.30
70969;BMP280;58630;43.022;25.100;2023-07-29T02:14:23;;;;25.20
70969;BMP280;58630;43.022;25.100;2023-07-29T02:16:48;;;;25.20
70969;BMP280;58630;43.022;25.100;2023-07-29T02:19:14;;;;25.20
70969;BMP280;58630;43.022;25.100;2023-07-29T02:21:40;;;;25.30
70969;BMP280;58630;43.022;25.100;2023-07-29T02:24:05;;;;25.30
70969;BMP280;58630;43.022;25.100;2023-07-29T02:26:31;;;;25.20
70969;BMP280;58630;43.022;25.100;2023-07-29T02:28:56;;;;25.20
70969;BMP280;58630;43.022;25.100;2023-07-29T02:31:23;;;;25.20
70969;BMP280;58630;43.022;25.100;2023-07-29T02:33:49;;;;25.20
70969;BMP280;58630;43.022;25.100;2023-07-29T02:36:15;;;;25.20
70969;BMP280;58630;43.022;25.100;2023-07-29T02:38:40;;;;25.20
70969;BMP280;58630;43.022;25.100;2023-07-29T02:41:07;;;;25.20
70969;BMP280;58630;43.022;25.100;2023-07-29T02:43:35;;;;25.20
70969;BMP280;58630;43.022;25.100;2023-07-29T02:46:01;;;;25.30
70969;BMP280;58630;43.022;25.100;2023-07-29T02:48:26;;;;25.30
70969;BMP280;58630;43.022;25.100;2023-07-29T02:50:53;;;;25.30
70969;BMP280;58630;43.022;25.100;2023-07-29T02:53:19;;;;25.30
70969;BMP280;58630;43.022;25.100;2023-07-29T02:55:44;;;;25.20
70969;BMP280;58630;43.022;25.100;2023-07-29T02:58:10;;;;25.10
70969;BMP280;58630;43.022;25.100;2023-07-29T03:00:35;;;;24.90
70969;BMP280;58630;43.022;25.100;2023-07-29T03:03:01;;;;24.90
70969;BMP280;58630;43.022;25.100;2023-07-29T03:05:27;;;;25.00
70969;BMP280;58630;43.022;25.100;2023-07-29T03:07:53;;;;25.00
70969;BMP280;58630;43.022;25.100;2023-07-29T03:10:18;;;;24.90
70969;BMP280;58630;43.022;25.100;2023-07-29T03:12:44;;;;24.90
70969;BMP280;58630;43.022;25.100;2023-07-29T03:15:09;;;;24.80
70969;BMP280;58630;43.022;25.100;2023-07-29T03:17:35;;;;24.80
70969;BMP280;58630;43.022;25.100;2023-07-29T03:20:01;;;;24.80
70969;BMP280;58630;43.022;25.100;2023-07-29T03:22:26;;;;24.70
70969;BMP280;58630;43.022;25.100;2023-07-29T03:24:52;;;;24.50
70969;BMP280;58630;43.022;25.100;2023-07-29T03:27:17;;;;24.30
70969;BMP280;58630;43.022;25.100;2023-07-29T03:29:43;;;;24.00
70969;BMP280;58630;43.022;25.100;2023-07-29T03:32:08;;;;23.70
70969;BMP280;58630;43.022;25.100;2023-07-29T03:34:34;;;;23.70
70969;BMP280;58630;43.022;25.100;2023-07-29T03:37:00;;;;23.60
70969;BMP280;58630;43.022;25.100;2023-07-29T03:39:26;;;;23.50
70969;BMP280;58630;43.022;25.100;2023-07-29T03:41:52;;;;23.40
70969;BMP280;58630;43.022;25.100;2023-07-29T03:44:17;;;;23.40
70969;BMP280;58630;43.022;25.100;2023-07-29T03:46:44;;;;23.40
70969;BMP280;58630;43.022;25.100;2023-07-29T03:49:09;;;;23.30
70969;BMP280;58630;43.022;25.100;2023-07-29T03:51:35;;;;23.40
70969;BMP280;58630;43.022;25.100;2023-07-29T03:54:00;;;;23.40
70969;BMP280;58630;43.022;25.100;2023-07-29T03:56:26;;;;23.40
70969;BMP280;58630;43.022;25.100;2023-07-29T03:58:52;;;;23.40
70969;BMP280;58630;43.022;25.100;2023-07-29T04:01:17;;;;23.40
70969;BMP280;58630;43.022;25.100;2023-07-29T04:03:44;;;;23.50
70969;BMP280;58630;43.022;25.100;2023-07-29T04:06:09;;;;23.60
70969;BMP280;58630;43.022;25.100;2023-07-29T04:08:35;;;;23.60
70969;BMP280;58630;43.022;25.100;2023-07-29T04:11:00;;;;23.60
70969;BMP280;58630;43.022;25.100;2023-07-29T04:13:26;;;;23.80
70969;BMP280;58630;43.022;25.100;2023-07-29T04:15:52;;;;23.80
70969;BMP280;58630;43.022;25.100;2023-07-29T04:18:17;;;;23.80
70969;BMP280;58630;43.022;25.100;2023-07-29T04:20:43;;;;23.80
70969;BMP280;58630;43.022;25.100;2023-07-29T04:23:08;;;;23.90
70969;BMP280;58630;43.022;25.100;2023-07-29T04:25:34;;;;23.90
70969;BMP280;58630;43.022;25.100;2023-07-29T04:27:59;;;;23.90
70969;BMP280;58630;43.022;25.100;2023-07-29T04:30:25;;;;24.00
70969;BMP280;58630;43.022;25.100;2023-07-29T04:32:50;;;;24.10
70969;BMP280;58630;43.022;25.100;2023-07-29T04:35:16;;;;24.20
70969;BMP280;58630;43.022;25.100;2023-07-29T04:37:42;;;;24.20
70969;BMP280;58630;43.022;25.100;2023-07-29T04:40:07;;;;24.10
70969;BMP280;58630;43.022;25.100;2023-07-29T04:42:33;;;;24.10
70969;BMP280;58630;43.022;25.100;2023-07-29T04:44:58;;;;24.00
70969;BMP280;58630;43.022;25.100;2023-07-29T04:47:24;;;;24.10
70969;BMP280;58630;43.022;25.100;2023-07-29T04:49:49;;;;24.10
70969;BMP280;58630;43.022;25.100;2023-07-29T04:52:15;;;;24.00
70969;BMP280;58630;43.022;25.100;2023-07-29T04:54:40;;;;24.00
70969;BMP280;58630;43.022;25.100;2023-07-29T04:57:06;;;;23.90
70969;BMP280;58630;43.022;25.100;2023-07-29T04:59:31;;;;23.80
70969;BMP280;58630;43.022;25.100;2023-07-29T05:01:57;;;;23.80
70969;BMP280;58630;43.022;25.100;2023-07-29T05:04:23;;;;23.80
70969;BMP280;58630;43.022;25.100;2023-07-29T05:06:48;;;;23.80
70969;BMP280;58630;43.022;25.100;2023-07-29T05:09:14;;;;23.80
70969;BMP280;58630;43.022;25.100;2023-07-29T05:11:41;;;;23.80
70969;BMP280;58630;43.022;25.100;2023-07-29T05:14:06;;;;23.70
70969;BMP280;58630;43.022;25.100;2023-07-29T05:16:32;;;;23.60
70969;BMP280;58630;43.022;25.100;2023-07-29T05:18:57;;;;23.50
70969;BMP280;58630;43.022;25.100;2023-07-29T05:21:23;;;;23.50
70969;BMP280;58630;43.022;25.100;2023-07-29T05:23:48;;;;23.50
70969;BMP280;58630;43.022;25.100;2023-07-29T05:26:14;;;;23.50
70969;BMP280;58630;43.022;25.100;2023-07-29T05:28:39;;;;23.60
70969;BMP280;58630;43.022;25.100;2023-07-29T05:31:05;;;;23.70
70969;BMP280;58630;43.022;25.100;2023-07-29T05:33:30;;;;23.80
70969;BMP280;58630;43.022;25.100;2023-07-29T05:35:56;;;;23.80
70969;BMP280;58630;43.022;25.100;2023-07-29T05:38:21;;;;23.80
70969;BMP280;58630;43.022;25.100;2023-07-29T05:40:50;;;;23.80
70969;BMP280;58630;43.022;25.100;2023-07-29T05:43:16;;;;23.80
70969;BMP280;58630;43.022;25.100;2023-07-29T05:45:41;;;;23.90
70969;BMP280;58630;43.022;25.100;2023-07-29T05:48:07;;;;23.90
70969;BMP280;58630;43.022;25.100;2023-07-29T05:50:32;;;;23.90
70969;BMP280;58630;43.022;25.100;2023-07-29T05:52:58;;;;24.00
70969;BMP280;58630;43.022;25.100;2023-07-29T05:55:23;;;;24.00
70969;BMP280;58630;43.022;25.100;2023-07-29T05:57:49;;;;24.00
70969;BMP280;58630;43.022;25.100;2023-07-29T06:00:15;;;;24.10
70969;BMP280;58630;43.022;25.100;2023-07-29T06:02:40;;;;24.10
70969;BMP280;58630;43.022;25.100;2023-07-29T06:05:09;;;;24.10
70969;BMP280;58630;43.022;25.100;2023-07-29T06:07:34;;;;24.10
70969;BMP280;58630;43.022;25.100;2023-07-29T06:10:00;;;;24.10
70969;BMP280;58630;43.022;25.100;2023-07-29T06:12:25;;;;24.10
70969;BMP280;58630;43.022;25.100;2023-07-29T06:14:51;;;;24.00
70969;BMP280;58630;43.022;25.100;2023-07-29T06:17:16;;;;23.90
70969;BMP280;58630;43.022;25.100;2023-07-29T06:19:42;;;;23.90
70969;BMP280;58630;43.022;25.100;2023-07-29T06:22:09;;;;23.90
70969;BMP280;58630;43.022;25.100;2023-07-29T06:24:34;;;;23.90
70969;BMP280;58630;43.022;25.100;2023-07-29T06:27:00;;;;23.90
70969;BMP280;58630;43.022;25.100;2023-07-29T06:29:25;;;;23.90
70969;BMP280;58630;43.022;25.100;2023-07-29T06:31:51;;;;23.90
70969;BMP280;58630;43.022;25.100;2023-07-29T06:34:17;;;;23.90
70969;BMP280;58630;43.022;25.100;2023-07-29T06:36:42;;;;23.80
70969;BMP280;58630;43.022;25.100;2023-07-29T06:39:08;;;;23.80
70969;BMP280;58630;43.022;25.100;2023-07-29T06:41:33;;;;23.90
70969;BMP280;58630;43.022;25.100;2023-07-29T06:43:59;;;;23.90
70969;BMP280;58630;43.022;25.100;2023-07-29T06:46:25;;;;23.90
70969;BMP280;58630;43.022;25.100;2023-07-29T06:48:51;;;;23.90
70969;BMP280;58630;43.022;25.100;2023-07-29T06:51:16;;;;23.90
70969;BMP280;58630;43.022;25.100;2023-07-29T06:53:42;;;;23.90
70969;BMP280;58630;43.022;25.100;2023-07-29T06:56:07;;;;23.90
70969;BMP280;58630;43.022;25.100;2023-07-29T06:58:34;;;;23.90
70969;BMP280;58630;43.022;25.100;2023-07-29T07:00:59;;;;23.80
70969;BMP280;58630;43.022;25.100;2023-07-29T07:03:25;;;;23.90
70969;BMP280;58630;43.022;25.100;2023-07-29T07:05:50;;;;23.90
70969;BMP280;58630;43.022;25.100;2023-07-29T07:08:16;;;;24.00
70969;BMP280;58630;43.022;25.100;2023-07-29T07:10:41;;;;24.00
70969;BMP280;58630;43.022;25.100;2023-07-29T07:13:07;;;;24.10
70969;BMP280;58630;43.022;25.100;2023-07-29T07:15:32;;;;24.10
70969;BMP280;58630;43.022;25.100;2023-07-29T07:17:58;;;;24.10
70969;BMP280;58630;43.022;25.100;2023-07-29T07:20:24;;;;24.10
70969;BMP280;58630;43.022;25.100;2023-07-29T07:22:49;;;;24.20
70969;BMP280;58630;43.022;25.100;2023-07-29T07:25:15;;;;24.20
70969;BMP280;58630;43.022;25.100;2023-07-29T07:27:40;;;;24.20
70969;BMP280;58630;43.022;25.100;2023-07-29T07:30:06;;;;24.30
70969;BMP280;58630;43.022;25.100;2023-07-29T07:32:32;;;;24.20
70969;BMP280;58630;43.022;25.100;2023-07-29T07:34:57;;;;24.10
70969;BMP280;58630;43.022;25.100;2023-07-29T07:37:23;;;;24.20
70969;BMP280;58630;43.022;25.100;2023-07-29T07:39:48;;;;24.20
70969;BMP280;58630;43.022;25.100;2023-07-29T07:42:14;;;;24.30
70969;BMP280;58630;43.022;25.100;2023-07-29T07:44:39;;;;24.30
70969;BMP280;58630;43.022;25.100;2023-07-29T07:47:05;;;;24.30
70969;BMP280;58630;43.022;25.100;2023-07-29T07:49:30;;;;24.40
70969;BMP280;58630;43.022;25.100;2023-07-29T07:51:56;;;;24.40
70969;BMP280;58630;43.022;25.100;2023-07-29T07:54:21;;;;24.50
70969;BMP280;58630;43.022;25.100;2023-07-29T07:56:47;;;;24.50
70969;BMP280;58630;43.022;25.100;2023-07-29T07:59:12;;;;24.50
70969;BMP280;58630;43.022;25.100;2023-07-29T08:01:38;;;;24.50
70969;BMP280;58630;43.022;25.100;2023-07-29T08:04:04;;;;24.50
70969;BMP280;58630;43.022;25.100;2023-07-29T08:06:30;;;;24.50
70969;BMP280;58630;43.022;25.100;2023-07-29T08:08:56;;;;24.50
70969;BMP280;58630;43.022;25.100;2023-07-29T08:11:21;;;;24.60
70969;BMP280;58630;43.022;25.100;2023-07-29T08:13:47;;;;24.60
70969;BMP280;58630;43.022;25.100;2023-07-29T08:16:13;;;;24.60
70969;BMP280;58630;43.022;25.100;2023-07-29T08:18:38;;;;24.60
70969;BMP280;58630;43.022;25.100;2023-07-29T08:21:04;;;;24.60
70969;BMP280;58630;43.022;25.100;2023-07-29T08:23:30;;;;24.70
70969;BMP280;58630;43.022;25.100;2023-07-29T08:26:00;;;;24.70
70969;BMP280;58630;43.022;25.100;2023-07-29T08:28:30;;;;24.70
70969;BMP280;58630;43.022;25.100;2023-07-29T08:30:56;;;;24.70
70969;BMP280;58630;43.022;25.100;2023-07-29T08:33:21;;;;24.70
70969;BMP280;58630;43.022;25.100;2023-07-29T08:35:47;;;;24.70
70969;BMP280;58630;43.022;25.100;2023-07-29T08:38:12;;;;24.70
70969;BMP280;58630;43.022;25.100;2023-07-29T08:40:42;;;;24.80
70969;BMP280;58630;43.022;25.100;2023-07-29T08:43:08;;;;24.70
70969;BMP280;58630;43.022;25.100;2023-07-29T08:45:35;;;;24.80
70969;BMP280;58630;43.022;25.100;2023-07-29T08:48:02;;;;24.80
70969;BMP280;58630;43.022;25.100;2023-07-29T08:50:32;;;;24.80
70969;BMP280;58630;43.022;25.100;2023-07-29T08:52:58;;;;24.80
70969;BMP280;58630;43.022;25.100;2023-07-29T08:55:24;;;;24.80
70969;BMP280;58630;43.022;25.100;2023-07-29T08:57:50;;;;24.80
70969;BMP280;58630;43.022;25.100;2023-07-29T09:00:16;;;;24.90
70969;BMP280;58630;43.022;25.100;2023-07-29T09:03:28;;;;24.90
70969;BMP280;58630;43.022;25.100;2023-07-29T09:05:53;;;;25.00
70969;BMP280;58630;43.022;25.100;2023-07-29T09:08:20;;;;25.00
70969;BMP280;58630;43.022;25.100;2023-07-29T09:10:46;;;;25.00
70969;BMP280;58630;43.022;25.100;2023-07-29T09:13:12;;;;25.10
70969;BMP280;58630;43.022;25.100;2023-07-29T09:15:37;;;;25.20
70969;BMP280;58630;43.022;25.100;2023-07-29T09:18:14;;;;25.20
70969;BMP280;58630;43.022;25.100;2023-07-29T09:20:40;;;;25.30
70969;BMP280;58630;43.022;25.100;2023-07-29T09:23:09;;;;25.30
70969;BMP280;58630;43.022;25.100;2023-07-29T09:25:36;;;;25.40
70969;BMP280;58630;43.022;25.100;2023-07-29T09:28:01;;;;25.50
70969;BMP280;58630;43.022;25.100;2023-07-29T09:30:32;;;;25.50
70969;BMP280;58630;43.022;25.100;2023-07-29T09:32:58;;;;25.40
70969;BMP280;58630;43.022;25.100;2023-07-29T09:35:24;;;;25.40
70969;BMP280;58630;43.022;25.100;2023-07-29T09:37:51;;;;25.40
70969;BMP280;58630;43.022;25.100;2023-07-29T09:40:17;;;;25.40
70969;BMP280;58630;43.022;25.100;2023-07-29T09:42:50;;;;25.40
70969;BMP280;58630;43.022;25.100;2023-07-29T09:45:25;;;;25.50
70969;BMP280;58630;43.022;25.100;2023-07-29T09:47:51;;;;25.50
70969;BMP280;58630;43.022;25.100;2023-07-29T09:50:17;;;;25.60
70969;BMP280;58630;43.022;25.100;2023-07-29T09:52:42;;;;25.60
70969;BMP280;58630;43.022;25.100;2023-07-29T09:55:12;;;;25.70
70969;BMP280;58630;43.022;25.100;2023-07-29T09:57:38;;;;25.70
70969;BMP280;58630;43.022;25.100;2023-07-29T10:00:04;;;;25.70
70969;BMP280;58630;43.022;25.100;2023-07-29T10:02:36;;;;25.80
70969;BMP280;58630;43.022;25.100;2023-07-29T10:05:02;;;;25.80
70969;BMP280;58630;43.022;25.100;2023-07-29T10:07:29;;;;25.70
70969;BMP280;58630;43.022;25.100;2023-07-29T10:09:55;;;;25.80
70969;BMP280;58630;43.022;25.100;2023-07-29T10:12:21;;;;25.80
70969;BMP280;58630;43.022;25.100;2023-07-29T10:14:47;;;;25.80
70969;BMP280;58630;43.022;25.100;2023-07-29T10:17:13;;;;25.90
70969;BMP280;58630;43.022;25.100;2023-07-29T10:19:40;;;;25.80
70969;BMP280;58630;43.022;25.100;2023-07-29T10:22:08;;;;25.80
70969;BMP280;58630;43.022;25.100;2023-07-29T10:24:34;;;;25.80
70969;BMP280;58630;43.022;25.100;2023-07-29T10:27:01;;;;25.80
70969;BMP280;58630;43.022;25.100;2023-07-29T10:29:32;;;;25.90
70969;BMP280;58630;43.022;25.100;2023-07-29T10:32:03;;;;25.90
70969;BMP280;58630;43.022;25.100;2023-07-29T10:34:30;;;;25.90
70969;BMP280;58630;43.022;25.100;2023-07-29T10:36:56;;;;25.90
70969;BMP280;58630;43.022;25.100;2023-07-29T10:39:24;;;;25.90
70969;BMP280;58630;43.022;25.100;2023-07-29T10:49:43;;;;26.00
70969;BMP280;58630;43.022;25.100;2023-07-29T10:52:12;;;;26.00
70969;BMP280;58630;43.022;25.100;2023-07-29T10:54:42;;;;26.00
70969;BMP280;58630;43.022;25.100;2023-07-29T10:57:07;;;;26.10
70969;BMP280;58630;43.022;25.100;2023-07-29T10:59:33;;;;26.10
70969;BMP280;58630;43.022;25.100;2023-07-29T11:02:01;;;;26.10
70969;BMP280;58630;43.022;25.100;2023-07-29T11:04:28;;;;26.10
70969;BMP280;58630;43.022;25.100;2023-07-29T11:14:52;;;;26.30
70969;BMP280;58630;43.022;25.100;2023-07-29T11:17:17;;;;26.40
70969;BMP280;58630;43.022;25.100;2023-07-29T11:19:43;;;;26.60
70969;BMP280;58630;43.022;25.100;2023-07-29T11:22:10;;;;26.70
70969;BMP280;58630;43.022;25.100;2023-07-29T11:24:35;;;;26.80
70969;BMP280;58630;43.022;25.100;2023-07-29T11:27:01;;;;26.80
70969;BMP280;58630;43.022;25.100;2023-07-29T11:29:26;;;;26.90
70969;BMP280;58630;43.022;25.100;2023-07-29T11:31:52;;;;27.00
70969;BMP280;58630;43.022;25.100;2023-07-29T11:34:17;;;;27.10
70969;BMP280;58630;43.022;25.100;2023-07-29T11:36:46;;;;27.20
70969;BMP280;58630;43.022;25.100;2023-07-29T11:39:11;;;;27.20
70969;BMP280;58630;43.022;25.100;2023-07-29T11:41:37;;;;27.30
70969;BMP280;58630;43.022;25.100;2023-07-29T11:44:02;;;;27.40
70969;BMP280;58630;43.022;25.100;2023-07-29T11:46:28;;;;27.50
70969;BMP280;58630;43.022;25.100;2023-07-29T11:48:54;;;;27.60
70969;BMP280;58630;43.022;25.100;2023-07-29T11:51:20;;;;27.60
70969;BMP280;58630;43.022;25.100;2023-07-29T11:53:46;;;;27.70
70969;BMP280;58630;43.022;25.100;2023-07-29T11:56:12;;;;27.90
70969;BMP280;58630;43.022;25.100;2023-07-29T11:58:38;;;;27.90
70969;BMP280;58630;43.022;25.100;2023-07-29T12:01:03;;;;28.10
70969;BMP280;58630;43.022;25.100;2023-07-29T12:03:30;;;;28.10
70969;BMP280;58630;43.022;25.100;2023-07-29T12:05:56;;;;28.20
70969;BMP280;58630;43.022;25.100;2023-07-29T12:08:21;;;;28.10
70969;BMP280;58630;43.022;25.100;2023-07-29T12:10:48;;;;27.90
70969;BMP280;58630;43.022;25.100;2023-07-29T12:13:14;;;;27.90
70969;BMP280;58630;43.022;25.100;2023-07-29T12:15:40;;;;27.80
70969;BMP280;58630;43.022;25.100;2023-07-29T12:18:06;;;;27.90
70969;BMP280;58630;43.022;25.100;2023-07-29T12:20:31;;;;27.90
70969;BMP280;58630;43.022;25.100;2023-07-29T12:22:58;;;;28.10
70969;BMP280;58630;43.022;25.100;2023-07-29T12:25:24;;;;28.10
70969;BMP280;58630;43.022;25.100;2023-07-29T12:27:50;;;;28.20
70969;BMP280;58630;43.022;25.100;2023-07-29T12:30:19;;;;28.20
70969;BMP280;58630;43.022;25.100;2023-07-29T12:32:45;;;;28.40
70969;BMP280;58630;43.022;25.100;2023-07-29T12:35:11;;;;28.30
70969;BMP280;58630;43.022;25.100;2023-07-29T12:37:37;;;;28.50
70969;BMP280;58630;43.022;25.100;2023-07-29T12:40:04;;;;28.60
70969;BMP280;58630;43.022;25.100;2023-07-29T12:42:30;;;;28.60
70969;BMP280;58630;43.022;25.100;2023-07-29T12:44:55;;;;28.70
70969;BMP280;58630;43.022;25.100;2023-07-29T12:47:21;;;;28.70
70969;BMP280;58630;43.022;25.100;2023-07-29T12:49:46;;;;28.70
70969;BMP280;58630;43.022;25.100;2023-07-29T12:52:12;;;;28.60
70969;BMP280;58630;43.022;25.100;2023-07-29T12:54:37;;;;28.70
70969;BMP280;58630;43.022;25.100;2023-07-29T12:57:03;;;;29.00
70969;BMP280;58630;43.022;25.100;2023-07-29T12:59:28;;;;29.40
70969;BMP280;58630;43.022;25.100;2023-07-29T13:01:54;;;;29.50
70969;BMP280;58630;43.022;25.100;2023-07-29T13:04:19;;;;29.30
70969;BMP280;58630;43.022;25.100;2023-07-29T13:06:45;;;;29.20
70969;BMP280;58630;43.022;25.100;2023-07-29T13:09:10;;;;29.10
70969;BMP280;58630;43.022;25.100;2023-07-29T13:11:36;;;;29.10
70969;BMP280;58630;43.022;25.100;2023-07-29T13:14:02;;;;29.00
70969;BMP280;58630;43.022;25.100;2023-07-29T13:16:27;;;;29.10
70969;BMP280;58630;43.022;25.100;2023-07-29T13:18:53;;;;29.10
70969;BMP280;58630;43.022;25.100;2023-07-29T13:21:19;;;;29.20
70969;BMP280;58630;43.022;25.100;2023-07-29T13:23:44;;;;29.20
70969;BMP280;58630;43.022;25.100;2023-07-29T13:26:10;;;;29.20
70969;BMP280;58630;43.022;25.100;2023-07-29T13:28:36;;;;29.20
70969;BMP280;58630;43.022;25.100;2023-07-29T13:31:02;;;;29.30
70969;BMP280;58630;43.022;25.100;2023-07-29T13:33:28;;;;29.50
70969;BMP280;58630;43.022;25.100;2023-07-29T13:35:54;;;;29.50
70969;BMP280;58630;43.022;25.100;2023-07-29T13:38:19;;;;29.40
70969;BMP280;58630;43.022;25.100;2023-07-29T13:40:45;;;;29.40
70969;BMP280;58630;43.022;25.100;2023-07-29T13:43:10;;;;29.60
70969;BMP280;58630;43.022;25.100;2023-07-29T13:45:36;;;;29.60
70969;BMP280;58630;43.022;25.100;2023-07-29T13:48:02;;;;30.20
70969;BMP280;58630;43.022;25.100;2023-07-29T13:50:27;;;;31.20
70969;BMP280;58630;43.022;25.100;2023-07-29T13:52:53;;;;31.80
70969;BMP280;58630;43.022;25.100;2023-07-29T13:55:18;;;;32.30
70969;BMP280;58630;43.022;25.100;2023-07-29T13:57:44;;;;32.80
70969;BMP280;58630;43.022;25.100;2023-07-29T14:00:09;;;;33.10
70969;BMP280;58630;43.022;25.100;2023-07-29T14:02:35;;;;33.30
70969;BMP280;58630;43.022;25.100;2023-07-29T14:05:01;;;;33.50
70969;BMP280;58630;43.022;25.100;2023-07-29T14:07:26;;;;33.70
70969;BMP280;58630;43.022;25.100;2023-07-29T14:09:52;;;;33.90
70969;BMP280;58630;43.022;25.100;2023-07-29T14:12:17;;;;34.00
70969;BMP280;58630;43.022;25.100;2023-07-29T14:14:43;;;;34.00
70969;BMP280;58630;43.022;25.100;2023-07-29T14:17:08;;;;34.10
70969;BMP280;58630;43.022;25.100;2023-07-29T14:19:35;;;;34.20
70969;BMP280;58630;43.022;25.100;2023-07-29T14:22:01;;;;34.50
70969;BMP280;58630;43.022;25.100;2023-07-29T14:24:26;;;;34.70
70969;BMP280;58630;43.022;25.100;2023-07-29T14:26:52;;;;34.70
70969;BMP280;58630;43.022;25.100;2023-07-29T14:29:17;;;;34.80
70969;BMP280;58630;43.022;25.100;2023-07-29T14:31:43;;;;34.90
70969;BMP280;58630;43.022;25.100;2023-07-29T14:34:09;;;;35.10
70969;BMP280;58630;43.022;25.100;2023-07-29T14:36:34;;;;35.20
70969;BMP280;58630;43.022;25.100;2023-07-29T14:39:00;;;;35.40
70969;BMP280;58630;43.022;25.100;2023-07-29T14:41:25;;;;35.60
70969;BMP280;58630;43.022;25.100;2023-07-29T14:43:51;;;;35.80
70969;BMP280;58630;43.022;25.100;2023-07-29T14:46:17;;;;35.90
70969;BMP280;58630;43.022;25.100;2023-07-29T14:48:42;;;;36.10
70969;BMP280;58630;43.022;25.100;2023-07-29T14:51:08;;;;36.20
70969;BMP280;58630;43.022;25.100;2023-07-29T14:53:34;;;;36.30
70969;BMP280;58630;43.022;25.100;2023-07-29T14:55:59;;;;36.30
70969;BMP280;58630;43.022;25.100;2023-07-29T14:58:25;;;;36.60
70969;BMP280;58630;43.022;25.100;2023-07-29T15:00:51;;;;36.70
70969;BMP280;58630;43.022;25.100;2023-07-29T15:03:17;;;;36.70
70969;BMP280;58630;43.022;25.100;2023-07-29T15:05:42;;;;36.70
70969;BMP280;58630;43.022;25.100;2023-07-29T15:08:08;;;;36.60
70969;BMP280;58630;43.022;25.100;2023-07-29T15:10:33;;;;36.60
70969;BMP280;58630;43.022;25.100;2023-07-29T15:12:59;;;;36.70
70969;BMP280;58630;43.022;25.100;2023-07-29T15:15:25;;;;36.60
70969;BMP280;58630;43.022;25.100;2023-07-29T15:17:50;;;;36.40
70969;BMP280;58630;43.022;25.100;2023-07-29T15:20:16;;;;36.30
70969;BMP280;58630;43.022;25.100;2023-07-29T15:22:41;;;;36.00
70969;BMP280;58630;43.022;25.100;2023-07-29T15:25:08;;;;35.80
70969;BMP280;58630;43.022;25.100;2023-07-29T15:27:34;;;;35.60
70969;BMP280;58630;43.022;25.100;2023-07-29T15:29:59;;;;35.50
70969;BMP280;58630;43.022;25.100;2023-07-29T15:32:25;;;;35.30
70969;BMP280;58630;43.022;25.100;2023-07-29T15:34:53;;;;35.20
70969;BMP280;58630;43.022;25.100;2023-07-29T15:37:22;;;;35.20
70969;BMP280;58630;43.022;25.100;2023-07-29T15:39:50;;;;35.10
70969;BMP280;58630;43.022;25.100;2023-07-29T15:42:15;;;;35.00
70969;BMP280;58630;43.022;25.100;2023-07-29T15:44:41;;;;35.00
70969;BMP280;58630;43.022;25.100;2023-07-29T15:47:07;;;;35.20
70969;BMP280;58630;43.022;25.100;2023-07-29T15:49:32;;;;35.60
70969;BMP280;58630;43.022;25.100;2023-07-29T15:51:58;;;;35.90
70969;BMP280;58630;43.022;25.100;2023-07-29T15:54:23;;;;36.10
70969;BMP280;58630;43.022;25.100;2023-07-29T15:56:49;;;;36.10
70969;BMP280;58630;43.022;25.100;2023-07-29T15:59:14;;;;36.10